Impacts METAR Board
IDs:

KMSP - Minneapolis-St Paul, MN, US

Updated at: 1900 UTC 08 Feb 2023
Potential Impact None Slight Moderate High
Time 08/07Z 08/08Z 08/09Z 08/10Z 08/11Z 08/12Z 08/13Z 08/14Z 08/15Z 08/16Z 08/17Z 08/18Z 08/19Z
Temp29 27 27 27 27 24 22 22 25 32 35 39 40
Dewpt22 21 21 21 21 19 18 20 21 26 26 27 28
Altim30.14 30.14 30.12 30.12 30.12 30.11 30.11 30.11 30.11 30.09 30.08 30.06 30.04
VIS10 10 10 10 10 10 10 10 10 10 10 10 10
CIG-- -- -- -- -- -- -- -- -- -- -- -- --
CoverCLRCLRCLRCLRCLRCLRCLRCLRCLRCLRCLRCLRCLR
FltCatVFRVFRVFRVFRVFRVFRVFRVFRVFRVFRVFRVFRVFR
WX--------------------------
WDir019019019019013014013014001400160
WSpd0 4 4 6 5 3 4 4 5 0 4 4 6
WGst-- -- -- -- -- -- -- -- -- -- -- -- --
Raw hourly METARs
KMSP 080653Z 00000KT 10SM CLR M02/M06 A3014 RMK AO2 SLP217 T10171056
KMSP 080753Z 19004KT 10SM CLR M03/M06 A3014 RMK AO2 SLP216 T10281061
KMSP 080853Z 19004KT 10SM CLR M03/M06 A3012 RMK AO2 SLP212 T10281061 58005
KMSP 080953Z 19006KT 10SM CLR M03/M06 A3012 RMK AO2 SLP210 T10281061
KMSP 081053Z 19005KT 10SM CLR M03/M06 A3012 RMK AO2 SLP211 4/009 T10281061
KMSP 081153Z 13003KT 10SM CLR M04/M07 A3011 RMK AO2 SLP208 4/009 T10441072 11017 21044 58004
KMSP 081253Z 14004KT 10SM CLR M06/M08 A3011 RMK AO2 SLP208 T10561078
KMSP 081353Z 13004KT 10SM CLR M06/M07 A3011 RMK AO2 SLP208 T10561067
KMSP 081453Z 14005KT 10SM CLR M04/M06 A3011 RMK AO2 SLP207 T10391061 56001
KMSP 081553Z 00000KT 10SM CLR 00/M03 A3009 RMK AO2 SLP201 T00001033
KMSP 081653Z 14004KT 10SM CLR 02/M03 A3008 RMK AO2 SLP197 T00171033
KMSP 081753Z VRB04KT 10SM CLR 04/M03 A3006 RMK AO2 SLP188 4/008 T00391028 10039 21061 58016
KMSP 081853Z 16006KT 10SM CLR 04/M02 A3004 RMK AO2 SLP181 T00441022



Page loaded:  19:56 UTC  |   11:56 AM Pacific  |   12:56 PM Mountain  |   01:56 PM Central  |   02:56 PM Eastern

 

ADVISORIES

FORECASTS

FORECASTS

OBSERVATIONS

USER TOOLS

ABOUT US